Time;durP1;ratioP1;P1;durP2;ratioP2;P2;SDS_P1;SDS_P2;PMS_P1;PMS_P2;Temp;Humidity;BMP_temperature;BMP_pressure;BME280_temperature;BME280_humidity;BME280_pressure;Samples;Min_cycle;Max_cycle;Signal;HPM_P1;HPM_P2
2021/10/14 00:00:18;;;;;;;30.25;18.57;;;;;;;9.06;75.22;99872.17;1749434;81;20940;-60
2021/10/14 00:02:44;;;;;;;28.55;17.55;;;;;;;9.08;75.17;99872.25;1750580;81;21446;-57
2021/10/14 00:05:11;;;;;;;25.77;18.00;;;;;;;9.06;75.18;99875.65;1751338;81;21072;-57
2021/10/14 00:07:38;;;;;;;27.77;18.10;;;;;;;9.06;75.27;99886.34;1754858;81;20921;-57
2021/10/14 00:13:34;;;;;;;30.85;17.45;;;;;;;9.08;75.20;99879.44;1751177;79;21002;-55
2021/10/14 00:20:07;;;;;;;24.75;16.62;;;;;;;9.07;75.17;99883.98;1756642;80;21497;-58
2021/10/14 00:26:27;;;;;;;26.52;17.32;;;;;;;9.07;75.12;99885.84;1752804;81;20940;-57
2021/10/14 00:32:49;;;;;;;24.85;16.23;;;;;;;9.08;75.16;99895.48;1752648;81;21022;-55
2021/10/14 00:38:47;;;;;;;23.10;15.72;;;;;;;9.04;75.21;99900.97;1750277;81;21759;-56
2021/10/14 00:45:09;;;;;;;22.80;15.95;;;;;;;9.03;75.40;99898.02;1747999;81;21568;-55
2021/10/14 00:51:05;;;;;;;24.87;16.87;;;;;;;9.05;75.40;99901.27;1744295;81;21525;-56
2021/10/14 00:57:26;;;;;;;24.12;15.75;;;;;;;9.05;75.30;99896.73;1752080;81;21489;-56
2021/10/14 01:03:22;;;;;;;22.07;15.28;;;;;;;9.04;75.33;99899.63;1753795;80;21026;-56
2021/10/14 01:09:43;;;;;;;27.25;16.32;;;;;;;9.07;75.33;99917.41;1753676;79;21575;-55
2021/10/14 01:15:42;;;;;;;24.55;16.12;;;;;;;9.09;75.07;99932.70;1750024;79;20999;-56
2021/10/14 01:21:39;;;;;;;26.60;15.90;;;;;;;9.08;75.06;99938.27;1749238;81;20864;-55
2021/10/14 01:27:36;;;;;;;29.15;17.85;;;;;;;9.11;75.07;99941.84;1742014;81;21530;-57
2021/10/14 01:33:33;;;;;;;31.00;18.55;;;;;;;9.09;75.05;99944.73;1746815;81;20975;-56
2021/10/14 01:39:30;;;;;;;30.95;18.67;;;;;;;9.10;75.01;99956.27;1749300;81;20888;-55
2021/10/14 01:45:27;;;;;;;31.50;19.82;;;;;;;9.08;74.93;99961.84;1750839;80;20944;-57
2021/10/14 01:51:24;;;;;;;29.92;19.32;;;;;;;9.02;74.97;99969.89;1748021;81;20943;-55
2021/10/14 01:57:21;;;;;;;28.87;18.60;;;;;;;9.03;75.06;99976.36;1746775;81;21573;-57
2021/10/14 02:03:54;;;;;;;33.30;21.02;;;;;;;9.00;74.97;99978.66;1751470;81;21109;-55
2021/10/14 02:09:51;;;;;;;38.90;22.35;;;;;;;8.93;75.28;99988.05;1748116;80;21582;-55
2021/10/14 02:15:49;;;;;;;31.62;20.00;;;;;;;8.98;75.26;99992.25;1749012;81;20995;-56
2021/10/14 02:21:47;;;;;;;33.20;21.12;;;;;;;9.03;75.16;99998.28;1755100;81;20951;-56
2021/10/14 02:27:44;;;;;;;39.85;22.50;;;;;;;8.98;75.01;100018.14;1754100;81;21000;-57
2021/10/14 02:34:03;;;;;;;39.90;22.22;;;;;;;8.91;74.95;100017.67;1751065;81;20943;-56
2021/10/14 02:40:00;;;;;;;37.50;21.80;;;;;;;8.85;75.13;100027.91;1750797;81;21006;-56
2021/10/14 02:46:21;;;;;;;40.52;21.97;;;;;;;8.84;75.19;100040.95;1752548;81;20944;-56
2021/10/14 02:52:18;;;;;;;41.63;22.00;;;;;;;8.84;75.14;100046.83;1752792;80;21529;-56
2021/10/14 02:58:26;;;;;;;39.85;23.60;;;;;;;8.90;75.21;100049.97;1756984;80;21014;-56
2021/10/14 03:04:23;;;;;;;40.58;23.10;;;;;;;8.96;74.88;100055.80;1754712;81;20986;-55
2021/10/14 03:10:20;;;;;;;39.35;23.25;;;;;;;9.02;74.66;100074.98;1752191;81;21022;-56
2021/10/14 03:16:19;;;;;;;40.85;23.67;;;;;;;8.99;74.41;100079.42;1750483;80;21514;-56
2021/10/14 03:22:17;;;;;;;41.58;24.67;;;;;;;8.97;74.15;100080.17;1747498;80;20948;-56
2021/10/14 03:28:14;;;;;;;38.78;22.25;;;;;;;8.97;74.01;100083.38;1743793;81;20964;-56
2021/10/14 03:34:11;;;;;;;41.02;21.65;;;;;;;8.92;73.89;100096.86;1750767;81;21597;-56
2021/10/14 03:40:10;;;;;;;35.60;22.40;;;;;;;8.92;73.69;100112.05;1747858;81;21418;-55
2021/10/14 03:46:07;;;;;;;36.08;21.90;;;;;;;8.88;73.62;100097.50;1744509;81;21415;-56
2021/10/14 03:52:05;;;;;;;33.63;20.72;;;;;;;8.86;73.56;100114.25;1751571;81;20959;-55
2021/10/14 03:58:02;;;;;;;36.20;20.32;;;;;;;8.84;73.26;100110.45;1752106;81;20999;-57
2021/10/14 04:04:00;;;;;;;31.27;17.73;;;;;;;8.72;73.41;100118.84;1745247;81;21003;-57
2021/10/14 04:09:57;;;;;;;31.27;17.82;;;;;;;8.69;73.35;100134.78;1750091;81;21034;-58
2021/10/14 04:15:54;;;;;;;30.75;18.07;;;;;;;8.70;73.28;100140.44;1747826;80;20936;-57
2021/10/14 04:21:50;;;;;;;33.63;17.20;;;;;;;8.69;73.34;100147.34;1755874;81;20919;-56
2021/10/14 04:27:47;;;;;;;27.30;15.72;;;;;;;8.75;73.21;100155.31;1751413;81;20947;-56
2021/10/14 04:33:44;;;;;;;30.43;16.52;;;;;;;8.79;72.91;100169.59;1752897;81;21137;-57
2021/10/14 04:39:40;;;;;;;24.10;15.13;;;;;;;8.85;72.70;100189.63;1752961;81;21490;-57
2021/10/14 04:45:37;;;;;;;26.97;14.78;;;;;;;8.81;72.49;100200.43;1754423;81;21003;-56
2021/10/14 04:51:34;;;;;;;23.38;14.60;;;;;;;8.69;72.39;100202.13;1750563;81;20991;-56
2021/10/14 04:57:31;;;;;;;27.45;14.53;;;;;;;8.54;72.60;100218.39;1752098;81;20998;-55
2021/10/14 05:04:05;;;;;;;24.65;13.83;;;;;;;8.49;72.73;100232.35;1750069;81;21002;-58
2021/10/14 05:10:27;;;;;;;28.00;13.85;;;;;;;8.39;72.82;100243.45;1755361;81;21042;-57
2021/10/14 05:16:23;;;;;;;23.50;13.08;;;;;;;8.36;72.91;100255.88;1756331;80;20968;-55
2021/10/14 05:22:20;;;;;;;24.20;14.95;;;;;;;8.32;72.82;100268.00;1749563;81;21007;-56
2021/10/14 05:28:18;;;;;;;25.20;14.10;;;;;;;8.36;73.08;100274.58;1752194;81;21545;-54
2021/10/14 05:34:15;;;;;;;23.15;14.07;;;;;;;8.46;72.90;100281.38;1752084;81;21491;-56
2021/10/14 05:40:35;;;;;;;21.87;13.38;;;;;;;8.55;72.75;100289.48;1750616;81;21502;-55
2021/10/14 05:46:32;;;;;;;20.25;12.55;;;;;;;8.63;72.55;100311.16;1755920;81;20966;-55
2021/10/14 05:52:52;;;;;;;22.32;12.70;;;;;;;8.67;72.16;100306.56;1752034;81;20967;-56
2021/10/14 05:58:48;;;;;;;24.40;12.00;;;;;;;8.59;72.01;100305.42;1752814;81;21010;-57
2021/10/14 06:05:08;;;;;;;23.12;12.15;;;;;;;8.64;72.16;100308.81;1748983;81;21015;-56
2021/10/14 06:11:05;;;;;;;23.98;11.78;;;;;;;8.78;71.89;100312.31;1750798;81;20995;-56
2021/10/14 06:13:34;;;;;;;19.25;12.00;;;;;;;9.05;71.70;100308.53;1750455;80;21014;-56
2021/10/14 06:16:01;;;;;;;17.07;11.05;;;;;;;9.40;71.34;100306.89;1730402;81;21398;-58
2021/10/14 06:18:27;;;;;;;17.60;11.18;;;;;;;10.03;70.51;100312.57;1748062;81;20996;-57
2021/10/14 06:20:55;;;;;;;26.27;13.13;;;;;;;10.58;68.87;100312.78;1749027;81;21097;-56
2021/10/14 06:23:22;;;;;;;17.15;11.73;;;;;;;10.96;68.08;100316.38;1747627;81;21038;-57
2021/10/14 06:25:49;;;;;;;19.57;12.78;;;;;;;11.27;66.21;100313.27;1747460;81;20908;-54
2021/10/14 06:28:15;;;;;;;21.68;11.75;;;;;;;11.42;64.77;100324.42;1751195;80;21545;-55
2021/10/14 06:30:41;;;;;;;21.95;12.30;;;;;;;11.50;64.05;100331.38;1746831;81;21002;-55
2021/10/14 06:33:08;;;;;;;22.58;11.95;;;;;;;11.48;63.05;100336.95;1747628;81;21199;-55
2021/10/14 06:35:35;;;;;;;18.20;11.50;;;;;;;11.53;62.91;100343.81;1747644;81;20982;-57
2021/10/14 06:38:02;;;;;;;18.67;10.53;;;;;;;11.84;62.50;100348.70;1748252;81;20982;-58
2021/10/14 06:40:29;;;;;;;13.75;9.90;;;;;;;12.48;61.49;100352.25;1748973;81;21045;-58
2021/10/14 06:42:55;;;;;;;17.27;11.03;;;;;;;13.36;59.62;100352.95;1746899;81;21620;-55
2021/10/14 06:45:22;;;;;;;18.82;11.08;;;;;;;14.14;57.53;100354.74;1745319;81;21128;-54
2021/10/14 06:47:48;;;;;;;15.48;10.28;;;;;;;14.61;55.50;100352.31;1745075;81;22215;-56
2021/10/14 06:50:15;;;;;;;21.97;11.18;;;;;;;14.81;54.47;100357.22;1748773;81;20971;-54
2021/10/14 06:52:42;;;;;;;16.12;9.73;;;;;;;14.90;54.06;100359.81;1742613;81;21098;-55
2021/10/14 06:55:08;;;;;;;15.85;9.43;;;;;;;14.88;53.68;100361.41;1750073;81;21006;-54
2021/10/14 06:57:36;;;;;;;18.30;10.60;;;;;;;14.76;52.86;100370.10;1750054;81;21146;-56
2021/10/14 07:00:09;;;;;;;16.85;11.10;;;;;;;14.52;53.37;100375.63;1745969;80;20959;-54
2021/10/14 07:02:35;;;;;;;20.30;11.05;;;;;;;14.36;53.47;100382.63;1746072;81;20916;-54
2021/10/14 07:05:03;;;;;;;16.35;11.20;;;;;;;14.16;53.27;100387.66;1747753;81;20998;-54
2021/10/14 07:07:30;;;;;;;16.57;11.30;;;;;;;13.82;53.73;100388.39;1747928;81;21545;-54
2021/10/14 07:09:57;;;;;;;17.90;10.53;;;;;;;13.57;54.33;100398.62;1747486;81;40113;-56
2021/10/14 07:12:28;;;;;;;17.77;11.40;;;;;;;13.38;54.59;100395.26;1745338;81;21627;-55
2021/10/14 07:14:56;;;;;;;15.72;10.30;;;;;;;13.23;55.00;100403.25;1745292;81;20999;-55
2021/10/14 07:17:23;;;;;;;18.42;10.13;;;;;;;13.11;54.91;100411.86;1747561;81;21075;-54
2021/10/14 07:19:49;;;;;;;15.15;9.98;;;;;;;13.00;55.42;100418.89;1755731;81;20960;-54
2021/10/14 07:22:16;;;;;;;14.90;9.93;;;;;;;12.92;55.47;100425.95;1752287;81;21796;-55
2021/10/14 07:24:42;;;;;;;15.03;9.03;;;;;;;12.84;55.88;100427.11;1749204;81;20919;-54
2021/10/14 07:27:08;;;;;;;19.73;10.00;;;;;;;12.82;56.00;100435.11;1751368;81;20895;-54
2021/10/14 07:29:36;;;;;;;16.60;10.10;;;;;;;12.79;55.98;100442.60;1751853;81;21592;-54
2021/10/14 07:32:05;;;;;;;15.75;8.90;;;;;;;12.77;55.61;100438.50;1751110;81;20998;-54
2021/10/14 07:34:34;;;;;;;15.30;9.18;;;;;;;12.70;56.13;100437.78;1754663;81;21246;-54
2021/10/14 07:37:02;;;;;;;13.08;8.53;;;;;;;12.71;56.17;100442.11;1750709;81;21252;-54
2021/10/14 07:39:31;;;;;;;17.00;8.73;;;;;;;12.73;56.08;100446.19;1756141;81;21585;-55
2021/10/14 07:41:57;;;;;;;11.50;8.08;;;;;;;12.69;55.77;100446.38;1752685;81;20967;-54
2021/10/14 07:44:23;;;;;;;17.35;9.18;;;;;;;12.64;56.21;100445.42;1751369;81;21022;-54
2021/10/14 07:46:50;;;;;;;14.60;8.43;;;;;;;12.62;56.34;100447.00;1752520;81;21289;-54
2021/10/14 07:49:17;;;;;;;18.42;8.78;;;;;;;12.70;56.30;100448.53;1750680;80;22024;-54
2021/10/14 07:51:44;;;;;;;11.68;8.00;;;;;;;12.75;56.51;100450.83;1752831;81;20975;-54
2021/10/14 07:54:10;;;;;;;13.25;8.50;;;;;;;12.78;56.19;100457.09;1749846;81;22535;-55
2021/10/14 07:56:37;;;;;;;13.20;8.45;;;;;;;12.79;56.50;100453.87;1750016;81;20916;-56
2021/10/14 07:59:04;;;;;;;16.32;8.83;;;;;;;12.85;56.22;100462.89;1751828;81;21815;-54
2021/10/14 08:01:30;;;;;;;13.93;8.40;;;;;;;12.93;56.04;100470.11;1749099;81;20971;-56
2021/10/14 08:03:57;;;;;;;13.48;8.50;;;;;;;12.99;55.31;100474.28;1752898;81;21001;-56
2021/10/14 08:06:24;;;;;;;10.60;7.92;;;;;;;13.03;55.89;100475.44;1753581;81;21010;-55
2021/10/14 08:08:50;;;;;;;13.15;8.03;;;;;;;13.10;55.90;100476.99;1754839;81;21686;-56
2021/10/14 08:11:17;;;;;;;19.52;8.73;;;;;;;13.23;56.08;100485.34;1755468;81;21976;-55
2021/10/14 08:13:44;;;;;;;13.18;7.92;;;;;;;13.33;55.39;100476.17;1755695;81;20900;-59
2021/10/14 08:16:11;;;;;;;12.00;7.53;;;;;;;13.35;54.83;100484.05;1754101;81;20941;-55
2021/10/14 08:18:38;;;;;;;16.23;8.53;;;;;;;13.34;54.99;100482.42;1754197;81;21090;-57
2021/10/14 08:21:04;;;;;;;14.68;8.30;;;;;;;13.36;54.67;100484.34;1751211;80;20992;-56
2021/10/14 08:23:31;;;;;;;15.13;7.40;;;;;;;13.39;54.29;100483.06;1752278;81;21139;-55
2021/10/14 08:25:58;;;;;;;17.45;8.15;;;;;;;13.38;54.56;100483.57;1752973;81;20880;-57
2021/10/14 08:28:26;;;;;;;9.88;6.35;;;;;;;13.43;55.04;100488.28;1753064;81;20967;-60
2021/10/14 08:30:53;;;;;;;13.05;7.33;;;;;;;13.51;54.19;100486.56;1753553;81;20995;-58
2021/10/14 08:33:19;;;;;;;11.73;7.60;;;;;;;13.49;53.55;100486.80;1753383;81;20998;-56
2021/10/14 08:35:46;;;;;;;12.13;6.72;;;;;;;13.47;53.89;100486.23;1753106;81;21850;-55
2021/10/14 08:38:12;;;;;;;13.70;7.60;;;;;;;13.47;53.90;100486.23;1751957;81;20959;-58
2021/10/14 08:40:39;;;;;;;11.08;7.17;;;;;;;13.47;53.73;100502.39;1755466;81;20955;-56
2021/10/14 08:43:11;;;;;;;11.22;7.08;;;;;;;13.44;53.20;100494.78;1752809;81;21588;-56
2021/10/14 08:45:40;;;;;;;12.43;7.75;;;;;;;13.39;53.14;100501.37;1759099;80;21092;-55
2021/10/14 08:48:07;;;;;;;10.88;6.80;;;;;;;13.32;53.57;100510.90;1754919;80;21123;-56
2021/10/14 08:50:35;;;;;;;10.85;6.28;;;;;;;13.33;53.79;100519.25;1755487;80;20975;-56
2021/10/14 08:53:01;;;;;;;10.13;6.17;;;;;;;13.33;53.29;100527.86;1753255;81;21031;-58
2021/10/14 08:55:30;;;;;;;14.50;7.37;;;;;;;13.29;53.51;100523.98;1751335;80;21059;-56
2021/10/14 08:57:58;;;;;;;9.23;5.83;;;;;;;13.27;53.11;100525.56;1750396;81;22044;-56
2021/10/14 09:00:25;;;;;;;13.05;6.47;;;;;;;13.29;53.62;100522.13;1752218;81;21142;-56
2021/10/14 09:02:51;;;;;;;11.30;7.15;;;;;;;13.36;53.32;100529.31;1751827;81;20892;-58
2021/10/14 09:05:17;;;;;;;10.13;6.75;;;;;;;13.31;53.24;100522.71;1754537;81;21545;-56
2021/10/14 09:07:50;;;;;;;9.95;6.58;;;;;;;13.31;53.54;100528.09;1753189;81;21014;-56
2021/10/14 09:10:16;;;;;;;10.98;5.97;;;;;;;13.34;53.18;100534.92;1754254;81;20999;-57
2021/10/14 09:12:46;;;;;;;9.10;6.03;;;;;;;13.36;52.61;100534.16;1751072;81;21987;-56
2021/10/14 09:15:15;;;;;;;11.33;5.87;;;;;;;13.33;52.92;100527.86;1750199;81;21006;-58
2021/10/14 09:17:49;;;;;;;12.53;6.28;;;;;;;13.35;53.03;100539.77;1753733;81;21597;-57
2021/10/14 09:20:38;;;;;;;9.75;6.00;;;;;;;13.37;52.16;100543.88;1754502;81;21501;-56
2021/10/14 09:23:27;;;;;;;8.63;5.95;;;;;;;13.32;51.62;100541.86;1755952;81;27261;-55
2021/10/14 09:25:52;;;;;;;11.60;6.37;;;;;;;13.24;51.83;100544.88;1752862;81;21158;-56
2021/10/14 09:28:25;;;;;;;9.05;5.83;;;;;;;13.10;52.12;100542.93;1751535;81;21034;-56
2021/10/14 09:31:02;;;;;;;8.60;5.72;;;;;;;13.01;52.13;100540.79;1750006;80;20908;-56
2021/10/14 09:33:41;;;;;;;8.90;5.42;;;;;;;12.97;52.13;100542.59;1750664;81;21506;-56
2021/10/14 09:36:12;;;;;;;;;;;;;;;13.02;51.95;100549.17;1753311;81;20994;-57
2021/10/14 09:38:39;;;;;;;8.10;5.20;;;;;;;13.05;51.63;100550.86;1749982;81;21141;-57
2021/10/14 09:41:11;;;;;;;9.98;6.20;;;;;;;13.06;51.64;100546.28;1751596;81;21261;-56
2021/10/14 09:43:38;;;;;;;8.75;5.33;;;;;;;13.09;51.58;100552.05;1751861;81;20939;-56
2021/10/14 09:46:05;;;;;;;9.28;5.92;;;;;;;13.10;51.12;100550.16;1752495;81;20916;-57
2021/10/14 09:48:32;;;;;;;9.05;5.60;;;;;;;13.06;51.00;100543.09;1753572;81;22014;-56
2021/10/14 09:50:58;;;;;;;12.60;5.80;;;;;;;13.02;51.01;100540.56;1752397;81;21149;-55
2021/10/14 09:53:27;;;;;;;9.68;5.87;;;;;;;13.06;50.59;100551.67;1750157;81;20998;-56
2021/10/14 09:55:54;;;;;;;8.50;5.47;;;;;;;13.08;50.75;100552.28;1754104;81;20975;-56
2021/10/14 09:58:25;;;;;;;8.53;5.25;;;;;;;13.08;50.74;100550.93;1751355;81;20947;-56
2021/10/14 10:00:49;;;;;;;7.58;5.08;;;;;;;13.02;50.70;100552.67;1752341;81;21050;-57
2021/10/14 10:03:19;;;;;;;10.00;5.33;;;;;;;13.03;50.60;100548.94;1753181;81;21108;-55
2021/10/14 10:05:50;;;;;;;9.95;5.70;;;;;;;13.04;50.39;100552.44;1752749;81;21046;-55
2021/10/14 10:08:31;;;;;;;9.43;5.45;;;;;;;12.99;50.42;100553.13;1756038;81;20987;-56
2021/10/14 10:11:04;;;;;;;7.03;5.12;;;;;;;12.97;51.18;100561.97;1755291;81;21029;-56
2021/10/14 10:13:33;;;;;;;9.28;5.08;;;;;;;13.04;50.43;100554.59;1752699;81;21461;-56
2021/10/14 10:16:19;;;;;;;8.30;5.17;;;;;;;13.06;50.55;100555.70;1749757;81;21410;-57
2021/10/14 10:18:53;;;;;;;9.15;5.00;;;;;;;13.11;50.94;100562.05;1751182;80;20959;-56
2021/10/14 10:21:37;;;;;;;9.18;5.33;;;;;;;13.15;49.71;100563.23;1752398;81;21005;-56
2021/10/14 10:24:07;;;;;;;7.53;5.28;;;;;;;13.18;49.92;100566.53;1752562;80;21582;-56
2021/10/14 10:26:42;;;;;;;7.97;5.50;;;;;;;13.18;49.59;100575.95;1751442;81;21019;-55
2021/10/14 10:29:21;;;;;;;9.25;5.75;;;;;;;13.16;50.08;100578.84;1743819;81;21886;-56
2021/10/14 10:31:56;;;;;;;10.82;6.03;;;;;;;13.17;49.31;100571.61;1752643;81;21027;-56
2021/10/14 10:37:25;;;;;;;7.67;5.30;;;;;;;13.25;49.65;100586.91;1751575;81;20888;-55
2021/10/14 10:39:57;;;;;;;7.15;5.45;;;;;;;13.33;49.21;100587.09;1751544;81;21776;-56
2021/10/14 10:42:49;;;;;;;8.53;5.50;;;;;;;13.30;48.72;100600.48;1753350;81;21108;-56
2021/10/14 10:45:19;;;;;;;6.90;5.15;;;;;;;13.22;48.66;100601.34;1752890;81;20924;-55
2021/10/14 10:47:48;;;;;;;8.70;6.03;;;;;;;13.15;48.24;100600.10;1753256;81;21536;-54
2021/10/14 10:50:24;;;;;;;8.10;5.28;;;;;;;13.09;48.35;100596.98;1755523;80;21058;-56
2021/10/14 10:53:38;;;;;;;8.13;4.83;;;;;;;13.09;48.31;100587.03;1756192;81;21442;-55
2021/10/14 10:56:05;;;;;;;8.93;5.75;;;;;;;13.12;48.03;100606.76;1751172;81;21902;-56
2021/10/14 10:58:44;;;;;;;7.37;5.28;;;;;;;13.12;48.14;100615.38;1751678;80;21018;-57
2021/10/14 11:01:11;;;;;;;9.40;5.20;;;;;;;13.04;48.02;100612.45;1750410;81;21074;-57
2021/10/14 11:03:51;;;;;;;9.78;6.08;;;;;;;12.95;48.31;100616.52;1750128;81;20966;-55
2021/10/14 11:06:18;;;;;;;10.40;6.47;;;;;;;12.83;48.66;100619.16;1677729;83;20975;-56
2021/10/14 11:08:44;;;;;;;9.58;6.17;;;;;;;12.70;49.27;100626.05;1697000;84;21471;-57
2021/10/14 11:11:18;;;;;;;9.43;6.85;;;;;;;12.62;49.49;100624.50;1695847;83;21011;-55
2021/10/14 11:13:51;;;;;;;11.25;6.92;;;;;;;12.59;49.95;100624.42;1696607;83;21086;-56
2021/10/14 11:16:20;;;;;;;11.00;7.20;;;;;;;12.60;50.21;100625.23;1687960;84;21008;-56
2021/10/14 11:18:49;;;;;;;12.73;6.58;;;;;;;12.63;50.69;100619.40;1690110;83;20948;-55
2021/10/14 11:21:19;;;;;;;9.78;6.33;;;;;;;12.65;50.67;100623.20;1687404;84;21139;-55
2021/10/14 11:23:49;;;;;;;14.43;7.00;;;;;;;12.65;50.94;100625.39;1688753;82;20991;-56
2021/10/14 11:26:31;;;;;;;12.50;7.15;;;;;;;12.68;50.83;100624.13;1688664;84;20999;-56
2021/10/14 11:29:10;;;;;;;12.30;6.85;;;;;;;12.67;50.52;100629.20;1689856;84;21003;-56
2021/10/14 11:32:00;;;;;;;9.43;6.58;;;;;;;12.66;50.38;100630.23;1690452;84;21063;-56
2021/10/14 11:34:24;;;;;;;11.63;6.45;;;;;;;12.69;50.25;100633.31;1687873;84;21230;-57
2021/10/14 11:37:01;;;;;;;14.45;6.30;;;;;;;12.73;50.08;100637.17;1693540;84;20971;-57
2021/10/14 11:39:47;;;;;;;12.00;6.72;;;;;;;12.72;50.18;100636.89;1691823;84;21015;-58
2021/10/14 11:42:21;;;;;;;9.98;6.80;;;;;;;12.76;50.12;100640.78;1753322;81;20955;-56
2021/10/14 11:44:55;;;;;;;10.95;7.15;;;;;;;12.77;49.87;100645.62;1753597;81;21041;-56
2021/10/14 11:47:23;;;;;;;11.12;7.78;;;;;;;12.74;49.84;100654.97;1751684;80;21953;-56
2021/10/14 11:50:09;;;;;;;12.00;7.35;;;;;;;12.68;50.00;100659.09;1751589;80;21395;-56
2021/10/14 11:52:37;;;;;;;10.50;6.67;;;;;;;12.69;50.19;100662.06;1751889;80;20935;-55
2021/10/14 11:55:06;;;;;;;11.70;7.00;;;;;;;12.75;49.47;100659.81;1751197;80;21057;-57
2021/10/14 11:57:35;;;;;;;8.48;5.67;;;;;;;12.74;48.34;100664.37;1751975;81;21066;-56
2021/10/14 12:00:01;;;;;;;13.85;6.83;;;;;;;12.65;48.53;100674.31;1751955;80;21772;-56
2021/10/14 12:02:32;;;;;;;10.65;7.00;;;;;;;12.56;49.11;100676.50;1756725;81;20983;-57
2021/10/14 12:05:01;;;;;;;12.33;6.50;;;;;;;12.53;49.19;100679.61;1752438;81;20856;-55
2021/10/14 12:07:30;;;;;;;11.45;6.72;;;;;;;12.55;49.33;100680.23;1751929;79;21066;-57
2021/10/14 12:09:57;;;;;;;13.93;6.80;;;;;;;12.59;49.22;100683.58;1755694;81;21049;-56
2021/10/14 12:12:26;;;;;;;8.35;5.97;;;;;;;12.66;48.95;100681.34;1754481;80;21154;-55
2021/10/14 12:15:06;;;;;;;9.33;6.25;;;;;;;12.72;49.01;100677.75;1750115;81;21089;-55
2021/10/14 12:17:41;;;;;;;10.43;6.40;;;;;;;12.80;48.79;100676.11;1750214;81;20947;-57
2021/10/14 12:20:17;;;;;;;14.13;6.28;;;;;;;12.79;48.58;100679.34;1747145;80;21120;-56
2021/10/14 12:22:58;;;;;;;9.85;6.85;;;;;;;12.78;47.59;100674.99;1746370;81;21042;-56
2021/10/14 12:25:35;;;;;;;11.57;6.50;;;;;;;12.79;48.19;100683.38;1744223;81;22356;-56
2021/10/14 12:28:03;;;;;;;10.20;6.65;;;;;;;12.77;48.43;100687.33;1747760;81;20916;-55
2021/10/14 12:30:39;;;;;;;12.55;6.60;;;;;;;12.71;48.40;100697.64;1748608;81;21006;-55
2021/10/14 12:33:19;;;;;;;10.23;6.42;;;;;;;12.63;48.89;100689.33;1747389;81;21026;-57
2021/10/14 12:35:58;;;;;;;10.93;7.33;;;;;;;12.59;48.81;100696.22;1747305;81;21504;-56
2021/10/14 12:38:39;;;;;;;13.70;7.60;;;;;;;12.58;49.00;100694.03;1744364;81;21795;-57
2021/10/14 12:41:13;;;;;;;10.15;6.55;;;;;;;12.56;48.75;100696.14;1747064;81;21617;-56
2021/10/14 12:43:51;;;;;;;10.00;6.50;;;;;;;12.54;49.05;100704.13;1747916;81;21080;-55
2021/10/14 12:46:34;;;;;;;8.95;6.22;;;;;;;12.51;48.59;100711.29;1747513;81;21031;-56
2021/10/14 12:51:48;;;;;;;10.13;6.28;;;;;;;12.42;48.94;100717.48;1750479;81;21810;-55
2021/10/14 12:54:21;;;;;;;11.53;7.22;;;;;;;12.41;49.11;100725.23;1747097;80;21595;-56
2021/10/14 12:56:50;;;;;;;13.85;6.90;;;;;;;12.44;49.22;100720.78;1743886;81;20971;-56
2021/10/14 12:59:17;;;;;;;12.70;6.75;;;;;;;12.45;49.13;100718.37;1744713;81;21493;-56
2021/10/14 13:01:47;;;;;;;11.15;7.37;;;;;;;12.44;49.40;100724.81;1746236;81;21528;-56
2021/10/14 13:04:14;;;;;;;;;;;;;;;12.42;49.59;100721.51;1751046;81;21124;-56
2021/10/14 13:06:41;;;;;;;12.63;6.95;;;;;;;12.40;49.70;100728.98;1748665;81;20124;-57
2021/10/14 13:09:07;;;;;;;12.03;8.05;;;;;;;12.34;49.76;100726.66;1746556;81;20987;-57
2021/10/14 13:11:35;;;;;;;18.05;8.53;;;;;;;12.33;49.65;100730.91;1752151;81;21102;-57
2021/10/14 13:14:08;;;;;;;13.40;7.47;;;;;;;12.30;49.75;100730.82;1746194;81;21051;-56
2021/10/14 13:16:37;;;;;;;12.93;8.18;;;;;;;12.31;50.11;100726.26;1746481;81;21026;-56
2021/10/14 13:19:05;;;;;;;11.30;7.72;;;;;;;12.30;49.88;100731.35;1746967;80;21052;-56
2021/10/14 13:21:32;;;;;;;13.60;7.85;;;;;;;12.31;49.95;100731.63;1750385;80;21533;-57
2021/10/14 13:23:58;;;;;;;12.40;7.78;;;;;;;12.34;50.11;100737.94;1755708;80;20998;-55
2021/10/14 13:26:25;;;;;;;13.30;7.10;;;;;;;12.35;50.32;100743.09;1754722;81;21002;-56
2021/10/14 13:28:52;;;;;;;12.45;7.28;;;;;;;12.36;50.30;100742.56;1751186;80;21762;-57
2021/10/14 13:31:19;;;;;;;12.55;7.40;;;;;;;12.37;50.22;100741.53;1751323;81;21647;-56
2021/10/14 13:33:47;;;;;;;10.98;7.28;;;;;;;12.37;50.31;100738.84;1751813;80;20912;-56
2021/10/14 13:36:15;;;;;;;10.88;7.12;;;;;;;12.35;50.23;100735.53;1754777;80;20954;-57
2021/10/14 13:38:45;;;;;;;11.68;7.35;;;;;;;12.31;50.43;100734.32;1751807;81;21181;-56
2021/10/14 13:41:21;;;;;;;10.80;7.33;;;;;;;12.31;50.60;100736.51;1755015;81;21275;-55
2021/10/14 13:44:01;;;;;;;11.15;6.95;;;;;;;12.29;51.16;100737.23;1755228;81;21094;-56
2021/10/14 13:46:24;;;;;;;12.03;7.10;;;;;;;12.26;51.78;100739.86;1743645;81;20955;-56
2021/10/14 13:48:51;;;;;;;11.38;7.40;;;;;;;12.25;52.19;100736.86;1751025;80;21019;-56
2021/10/14 13:51:19;;;;;;;14.63;7.47;;;;;;;12.24;52.42;100735.73;1751434;81;21022;-56
2021/10/14 13:53:46;;;;;;;11.08;7.17;;;;;;;12.22;52.52;100735.96;1750951;80;21124;-56
2021/10/14 13:56:13;;;;;;;10.38;6.85;;;;;;;12.21;52.45;100733.50;1753039;81;20971;-56
2021/10/14 13:58:40;;;;;;;12.37;7.50;;;;;;;12.18;52.31;100735.28;1753000;80;20943;-56
2021/10/14 14:01:06;;;;;;;9.15;7.00;;;;;;;12.15;52.20;100727.12;1757646;81;21091;-56
2021/10/14 14:03:33;;;;;;;14.55;7.75;;;;;;;12.09;52.36;100737.42;1753635;80;20995;-56
2021/10/14 14:06:00;;;;;;;11.45;7.28;;;;;;;12.04;52.84;100736.73;1752496;81;21147;-56
2021/10/14 14:08:26;;;;;;;11.65;7.35;;;;;;;12.02;52.97;100738.80;1752664;80;21034;-56
2021/10/14 14:10:52;;;;;;;13.83;7.90;;;;;;;12.00;52.83;100730.65;1752295;81;21006;-56
2021/10/14 14:13:21;;;;;;;13.88;7.62;;;;;;;11.98;52.76;100736.77;1749166;81;20972;-56
2021/10/14 14:15:47;;;;;;;12.60;8.30;;;;;;;11.95;52.86;100739.90;1752289;80;20943;-57
2021/10/14 14:18:14;;;;;;;12.45;8.15;;;;;;;11.91;52.88;100740.31;1752196;81;21795;-56
2021/10/14 14:20:43;;;;;;;13.30;7.78;;;;;;;11.88;53.00;100742.09;1750886;80;20927;-56
2021/10/14 14:23:09;;;;;;;;;;;;;;;11.84;52.97;100736.84;1750106;81;20951;-55
2021/10/14 14:25:36;;;;;;;14.50;8.85;;;;;;;11.80;53.22;100748.24;1747570;81;20175;-56
2021/10/14 14:28:04;;;;;;;13.65;8.68;;;;;;;11.73;53.47;100754.48;1743948;81;21093;-54
2021/10/14 14:30:30;;;;;;;18.40;9.00;;;;;;;11.69;53.64;100749.73;1748567;81;21800;-56
2021/10/14 14:32:57;;;;;;;14.40;8.60;;;;;;;11.67;53.67;100749.14;1747383;81;20967;-56
2021/10/14 14:35:24;;;;;;;12.95;8.95;;;;;;;11.62;53.95;100750.32;1745802;81;20995;-56
2021/10/14 14:37:50;;;;;;;15.58;9.08;;;;;;;11.59;54.22;100756.94;1744925;81;21028;-57
2021/10/14 14:40:17;;;;;;;16.77;9.88;;;;;;;11.54;54.72;100755.41;1746243;81;20971;-56
2021/10/14 14:42:44;;;;;;;14.63;8.48;;;;;;;11.50;54.99;100759.58;1746405;81;21054;-56
2021/10/14 14:45:11;;;;;;;16.77;8.70;;;;;;;11.44;55.01;100757.73;1745642;81;21624;-56
2021/10/14 14:47:44;;;;;;;19.17;9.58;;;;;;;11.38;55.12;100760.74;1749608;81;20892;-56
2021/10/14 14:50:18;;;;;;;12.75;8.73;;;;;;;11.32;55.36;100752.20;1749733;81;21007;-56
2021/10/14 14:52:36;;;;;;;14.70;9.28;;;;;;;11.28;55.60;100756.34;1749452;81;20971;-57
2021/10/14 14:55:03;;;;;;;17.10;10.10;;;;;;;11.21;55.79;100753.19;1746939;81;21063;-56
2021/10/14 14:57:30;;;;;;;18.57;9.73;;;;;;;11.17;56.01;100755.17;1747348;81;21052;-57
2021/10/14 14:59:56;;;;;;;20.72;10.53;;;;;;;11.11;56.20;100750.66;1744606;81;21517;-55
2021/10/14 15:02:23;;;;;;;19.52;10.93;;;;;;;11.04;56.35;100757.38;1746522;81;20987;-58
2021/10/14 15:04:50;;;;;;;20.12;11.40;;;;;;;10.97;56.57;100761.44;1749746;81;20952;-56
2021/10/14 15:07:18;;;;;;;;;;;;;;;10.91;56.89;100758.26;1748923;81;21147;-57
2021/10/14 15:09:45;;;;;;;26.40;12.07;;;;;;;10.86;57.31;100762.92;1753195;81;20199;-56